Meteo Giornale » Osservazioni meteo Stati Uniti (USA) » Astoria
ore: 01:55 - Osservazioni Meteo Astoria
Lat. 46° 9' N Lon. 123° 52' W Alt. 3 metri s.l.m.
16 °C
Coperto
Temp. 24 Ore
10 °C
23 °C
Sud/Sud-Ovest
7.4 Km/h
Dew point 13 °C
Umidità 82 %
Visibilità 10 Km
Il sole sorge alle ore 06:36
Il sole tramonta alle ore 19:54
| Data e Ora | Cielo e Fenomeni | T °C | DP °C | Um. % | Pres. hPa | Vis. km | Vento km/h | |
|---|---|---|---|---|---|---|---|---|
| Oggi h: 01:55 | Coperto | 16 | 13 | 82 | 1010 | 10 | S/SO 7.4 | |
| Oggi h: 00:55 | Coperto | 16 | 13 | 82 | 1010 | 10 | S/SO 9.3 | |
| Ieri h: 23:55 | Coperto | 16 | 13 | 82 | 1010 | 10 | S 9.3 | |
| Ieri h: 22:55 | Coperto | 16 | 14 | 87 | 1010 | 10 | SO 9.3 | |
| Ieri h: 22:47 | Coperto | 16 | 14 | 87 | 1010 | 10 | SO 11.1 | |
| Ieri h: 21:55 | Coperto | 16 | 14 | 87 | 1010 | 10 | SO 11.1 | |
| Ieri h: 20:55 | Molto Nuvoloso | 16 | 13 | 82 | 1009 | 10 | SO 9.3 | |
| Ieri h: 19:55 | Molto Nuvoloso | 16 | 14 | 87 | 1009 | 10 | O/SO 11.1 | |
| Ieri h: 19:40 | Molto Nuvoloso | 16 | 14 | 87 | 1009 | 10 | O/SO 14.8 | |
| Ieri h: 18:55 | Sereno | 17 | 14 | 82 | 1009 | 10 | O 13 | |
| Ieri h: 17:55 | Sereno | 19 | 13 | 68 | 1008 | 10 | O 16.7 | |
| Ieri h: 16:55 | Sereno | 20 | 13 | 64 | 1008 | 10 | O/NO 22.2 | |
| Ieri h: 15:55 | Sereno | 22 | 14 | 60 | 1008 | 10 | O/NO 22.2 | |
| Ieri h: 14:55 | Sereno | 23 | 14 | 56 | 1008 | 10 | NO 20.3 | |
| Ieri h: 13:55 | Sereno | 23 | 14 | 56 | 1009 | 10 | N/NO 14.8 | |
| Ieri h: 12:55 | Sereno | 22 | 13 | 56 | 1009 | 10 | N/NO 14.8 | |
| Ieri h: 11:55 | Sereno | 21 | 12 | 56 | 1010 | 10 | N/NO 11.1 | |
| Ieri h: 10:55 | Sereno | 21 | 12 | 56 | 1010 | 10 | NE 11.1 | |
| Ieri h: 09:55 | Sereno | 18 | 13 | 72 | 1011 | 10 | N 9.3 | |
| Ieri h: 08:55 | Sereno | 16 | 13 | 82 | 1011 | 10 | N 0 | |
| Ieri h: 07:55 | Sereno | 12 | 11 | 93 | 1011 | 10 | N 5.5 | |
| Ieri h: 06:55 | Sereno | 10 | 9 | 93 | 1012 | 13 | N 5.5 | |
| Ieri h: 05:55 | Sereno | 11 | 9 | 87 | 1012 | 10 | N 5.5 | |
| Ieri h: 04:55 | Poco Nuvoloso | 11 | 10 | 93 | 1012 | 11 | N 5.5 | |
| Ieri h: 04:25 | Foschia | 11 | 10 | 93 | 1013 | 6 | N 5.5 | |
| Ieri h: 03:55 | Sereno | 11 | 11 | 100 | 1013 | 14 | N 0 | |
| Ieri h: 02:55 | Sereno | 12 | 11 | 93 | 1014 | 14 | N 0 | |



